Wetterdaten: Woche 19.09.11 - 25.09.11 (KW38)
Datum Zeit Temperatur Luftfeuchte Luftdruck Niederschlag Windrichtung Sonnenschein Solar Wind
19.09.2011 00:00 8,2 C 95 % 1010,1 hPa 0,0 l/m S-SW 0,00 h 0 W/m 6,5 km/h (2 Bft)
19.09.2011 01:00 7,8 C 94 % 1010,4 hPa 0,0 l/m S-SW 0,00 h 0 W/m 6,7 km/h (2 Bft)
19.09.2011 02:00 7,5 C 94 % 1010,5 hPa 0,0 l/m S-SW 0,00 h 0 W/m 8,9 km/h (2 Bft)
19.09.2011 03:00 7,3 C 92 % 1010,2 hPa 0,0 l/m SW 0,00 h 0 W/m 9,9 km/h (2 Bft)
19.09.2011 04:00 7,0 C 93 % 1010,1 hPa 0,0 l/m S-SW 0,00 h 0 W/m 7,2 km/h (2 Bft)
19.09.2011 05:00 6,9 C 93 % 1010,3 hPa 0,0 l/m N 0,00 h 0 W/m 4,0 km/h (1 Bft)
19.09.2011 06:00 6,8 C 93 % 1010,1 hPa 0,0 l/m S-SO 0,00 h 0 W/m 4,8 km/h (1 Bft)
19.09.2011 07:00 6,8 C 93 % 1010,2 hPa 0,0 l/m N 0,00 h 12 W/m 3,1 km/h (1 Bft)
19.09.2011 08:00 7,2 C 92 % 1010,3 hPa 0,0 l/m S-SO 0,00 h 44 W/m 3,5 km/h (1 Bft)
19.09.2011 09:00 7,7 C 91 % 1010,8 hPa 0,0 l/m S-SW 0,00 h 75 W/m 3,2 km/h (1 Bft)
19.09.2011 10:00 8,2 C 92 % 1011,7 hPa 0,0 l/m S-SW 0,00 h 133 W/m 7,3 km/h (2 Bft)
19.09.2011 11:00 8,9 C 90 % 1012,4 hPa 0,0 l/m S 0,00 h 174 W/m 6,5 km/h (2 Bft)
19.09.2011 12:00 9,9 C 88 % 1012,7 hPa 0,0 l/m S-SW 0,00 h 223 W/m 9,0 km/h (2 Bft)
19.09.2011 13:00 10,7 C 84 % 1013,2 hPa 0,0 l/m S 0,00 h 270 W/m 10,5 km/h (2 Bft)
19.09.2011 14:00 11,2 C 82 % 1013,5 hPa 0,0 l/m SW 0,00 h 241 W/m 11,4 km/h (2 Bft)
19.09.2011 15:00 11,0 C 84 % 1014,0 hPa 0,0 l/m SW 0,00 h 157 W/m 10,9 km/h (2 Bft)
19.09.2011 16:00 11,6 C 81 % 1014,3 hPa 0,0 l/m SW 0,25 h 238 W/m 8,7 km/h (2 Bft)
19.09.2011 17:00 11,6 C 82 % 1015,1 hPa 0,0 l/m SW 0,00 h 97 W/m 5,7 km/h (1 Bft)
19.09.2011 18:00 11,1 C 85 % 1016,0 hPa 0,0 l/m SW 0,00 h 44 W/m 4,7 km/h (1 Bft)
19.09.2011 19:00 10,4 C 89 % 1017,0 hPa 0,0 l/m W-SW 0,00 h 11 W/m 3,9 km/h (1 Bft)
19.09.2011 20:00 9,6 C 94 % 1018,3 hPa 0,4 l/m N 0,00 h 0 W/m 2,5 km/h (1 Bft)
19.09.2011 21:00 9,2 C 95 % 1019,1 hPa 0,0 l/m W-SW 0,00 h 0 W/m 4,0 km/h (1 Bft)
19.09.2011 22:00 9,1 C 94 % 1019,6 hPa 0,0 l/m N 0,00 h 0 W/m 1,5 km/h (1 Bft)
19.09.2011 23:00 9,2 C 95 % 1020,2 hPa 0,0 l/m W-SW 0,00 h 0 W/m 1,3 km/h (1 Bft)
20.09.2011 00:00 9,1 C 96 % 1020,8 hPa 0,0 l/m W-SW 0,00 h 0 W/m 1,7 km/h (1 Bft)
20.09.2011 01:00 9,1 C 97 % 1021,2 hPa 0,0 l/m N 0,00 h 0 W/m 0,4 km/h (0 Bft)
20.09.2011 02:00 8,2 C 97 % 1021,4 hPa 0,0 l/m N 0,00 h 0 W/m 1,3 km/h (1 Bft)
20.09.2011 03:00 7,7 C 97 % 1022,2 hPa 0,0 l/m N 0,00 h 0 W/m 0,4 km/h (0 Bft)
20.09.2011 04:00 7,2 C 97 % 1022,7 hPa 0,0 l/m N 0,00 h 0 W/m 0,0 km/h (0 Bft)
20.09.2011 05:00 6,8 C 97 % 1022,9 hPa 0,0 l/m N 0,00 h 0 W/m 0,7 km/h (0 Bft)
20.09.2011 06:00 7,5 C 97 % 1023,4 hPa 0,0 l/m N 0,00 h 0 W/m 1,1 km/h (0 Bft)
20.09.2011 07:00 7,9 C 98 % 1023,8 hPa 0,0 l/m N 0,00 h 14 W/m 1,3 km/h (1 Bft)
20.09.2011 08:00 8,1 C 98 % 1024,3 hPa 0,0 l/m N 0,00 h 42 W/m 1,5 km/h (1 Bft)
20.09.2011 09:00 9,3 C 98 % 1024,8 hPa 0,0 l/m W-SW 0,25 h 174 W/m 2,8 km/h (1 Bft)
20.09.2011 10:00 11,6 C 91 % 1025,1 hPa 0,0 l/m W-SW 0,50 h 283 W/m 3,7 km/h (1 Bft)
20.09.2011 11:00 13,1 C 80 % 1025,1 hPa 0,0 l/m O-SO 0,00 h 246 W/m 4,9 km/h (1 Bft)
20.09.2011 12:00 13,5 C 75 % 1024,8 hPa 0,0 l/m O 0,00 h 238 W/m 3,6 km/h (1 Bft)
20.09.2011 13:00 14,6 C 69 % 1024,4 hPa 0,0 l/m O-SO 0,83 h 441 W/m 5,6 km/h (1 Bft)
20.09.2011 14:00 15,7 C 63 % 1023,9 hPa 0,0 l/m O-SO 0,58 h 573 W/m 8,5 km/h (2 Bft)
20.09.2011 15:00 15,3 C 64 % 1023,8 hPa 0,0 l/m O-NO 0,17 h 270 W/m 9,8 km/h (2 Bft)
20.09.2011 16:00 16,1 C 58 % 1023,3 hPa 0,0 l/m O-SO 0,33 h 213 W/m 9,5 km/h (2 Bft)
20.09.2011 17:00 15,5 C 61 % 1023,2 hPa 0,0 l/m S 0,00 h 69 W/m 9,8 km/h (2 Bft)
20.09.2011 18:00 14,6 C 65 % 1023,2 hPa 0,0 l/m SO 0,00 h 35 W/m 5,1 km/h (1 Bft)
20.09.2011 19:00 11,3 C 87 % 1023,1 hPa 0,0 l/m N 0,00 h 10 W/m 0,7 km/h (0 Bft)
20.09.2011 20:00 9,8 C 92 % 1023,3 hPa 0,0 l/m N 0,00 h 0 W/m 0,0 km/h (0 Bft)
20.09.2011 21:00 9,0 C 94 % 1023,4 hPa 0,0 l/m N 0,00 h 0 W/m 0,7 km/h (0 Bft)
20.09.2011 22:00 8,6 C 95 % 1023,1 hPa 0,0 l/m N 0,00 h 0 W/m 1,3 km/h (1 Bft)
20.09.2011 23:00 8,3 C 95 % 1022,6 hPa 0,0 l/m N 0,00 h 0 W/m 2,5 km/h (1 Bft)
21.09.2011 00:00 8,2 C 96 % 1022,0 hPa 0,0 l/m SO 0,00 h 0 W/m 3,6 km/h (1 Bft)
21.09.2011 01:00 8,0 C 95 % 1021,9 hPa 0,0 l/m N 0,00 h 0 W/m 4,7 km/h (1 Bft)
21.09.2011 02:00 7,6 C 95 % 1021,6 hPa 0,0 l/m N 0,00 h 0 W/m 3,3 km/h (1 Bft)
21.09.2011 03:00 7,3 C 96 % 1021,2 hPa 0,0 l/m N-NW 0,00 h 0 W/m 4,8 km/h (1 Bft)
21.09.2011 04:00 7,1 C 97 % 1021,1 hPa 0,0 l/m N-NW 0,00 h 0 W/m 7,2 km/h (2 Bft)
21.09.2011 05:00 6,7 C 97 % 1021,1 hPa 0,0 l/m N-NW 0,00 h 0 W/m 2,8 km/h (1 Bft)
21.09.2011 06:00 6,4 C 97 % 1021,2 hPa 0,0 l/m N 0,00 h 0 W/m 1,5 km/h (1 Bft)
21.09.2011 07:00 6,6 C 97 % 1021,7 hPa 0,2 l/m N 0,00 h 20 W/m 0,8 km/h (0 Bft)
21.09.2011 08:00 7,0 C 98 % 1021,9 hPa 0,0 l/m N 0,00 h 72 W/m 1,1 km/h (0 Bft)
21.09.2011 09:00 8,0 C 99 % 1021,7 hPa 0,0 l/m W-SW 0,00 h 137 W/m 5,4 km/h (1 Bft)
21.09.2011 10:00 9,7 C 96 % 1021,7 hPa 0,0 l/m W-SW 0,00 h 223 W/m 7,5 km/h (2 Bft)
21.09.2011 11:00 11,7 C 88 % 1021,4 hPa 0,0 l/m SW 0,00 h 178 W/m 5,2 km/h (1 Bft)
21.09.2011 12:00 13,7 C 81 % 1021,0 hPa 0,0 l/m W-SW 0,17 h 276 W/m 6,1 km/h (2 Bft)
21.09.2011 13:00 15,9 C 73 % 1020,5 hPa 0,0 l/m SW 1,00 h 722 W/m 6,5 km/h (2 Bft)
21.09.2011 14:00 17,3 C 70 % 1019,8 hPa 0,0 l/m S-SW 1,00 h 673 W/m 7,6 km/h (2 Bft)
21.09.2011 15:00 18,1 C 66 % 1019,4 hPa 0,0 l/m S-SW 0,83 h 476 W/m 7,0 km/h (2 Bft)
21.09.2011 16:00 18,0 C 67 % 1018,9 hPa 0,0 l/m SO 0,42 h 234 W/m 6,8 km/h (2 Bft)
21.09.2011 17:00 17,5 C 69 % 1018,6 hPa 0,0 l/m S-SO 0,00 h 59 W/m 4,8 km/h (1 Bft)
21.09.2011 18:00 16,1 C 78 % 1018,6 hPa 0,0 l/m N 0,00 h 29 W/m 1,6 km/h (1 Bft)
21.09.2011 19:00 13,2 C 91 % 1018,9 hPa 0,0 l/m N 0,00 h 9 W/m 0,1 km/h (0 Bft)
21.09.2011 20:00 11,7 C 94 % 1019,5 hPa 0,0 l/m N 0,00 h 0 W/m 0,0 km/h (0 Bft)
21.09.2011 21:00 10,6 C 96 % 1019,8 hPa 0,0 l/m N 0,00 h 0 W/m 0,0 km/h (0 Bft)
21.09.2011 22:00 9,8 C 97 % 1019,6 hPa 0,0 l/m N 0,00 h 0 W/m 0,0 km/h (0 Bft)
21.09.2011 23:00 9,2 C 97 % 1019,4 hPa 0,0 l/m N 0,00 h 0 W/m 0,0 km/h (0 Bft)
22.09.2011 00:00 8,6 C 98 % 1019,2 hPa 0,0 l/m N 0,00 h 0 W/m 0,0 km/h (0 Bft)
22.09.2011 01:00 8,1 C 98 % 1019,4 hPa 0,0 l/m N 0,00 h 0 W/m 0,0 km/h (0 Bft)
22.09.2011 02:00 7,9 C 98 % 1019,5 hPa 0,0 l/m N 0,00 h 0 W/m 0,1 km/h (0 Bft)
22.09.2011 03:00 7,5 C 98 % 1019,4 hPa 0,0 l/m N 0,00 h 0 W/m 0,0 km/h (0 Bft)
22.09.2011 04:00 6,9 C 97 % 1019,5 hPa 0,0 l/m N 0,00 h 0 W/m 0,0 km/h (0 Bft)
22.09.2011 05:00 6,6 C 97 % 1019,5 hPa 0,0 l/m N 0,00 h 0 W/m 0,0 km/h (0 Bft)
22.09.2011 06:00 6,2 C 97 % 1019,6 hPa 0,0 l/m N 0,00 h 0 W/m 0,0 km/h (0 Bft)
22.09.2011 07:00 5,9 C 97 % 1019,9 hPa 0,0 l/m N 0,00 h 19 W/m 0,0 km/h (0 Bft)
22.09.2011 08:00 6,8 C 98 % 1020,2 hPa 0,0 l/m N 0,00 h 57 W/m 0,0 km/h (0 Bft)
22.09.2011 09:00 9,0 C 98 % 1020,7 hPa 0,0 l/m N 0,33 h 175 W/m 0,8 km/h (0 Bft)
22.09.2011 10:00 12,4 C 91 % 1020,8 hPa 0,0 l/m N 0,33 h 233 W/m 2,8 km/h (1 Bft)
22.09.2011 11:00 15,2 C 80 % 1020,5 hPa 0,0 l/m S-SO 0,08 h 261 W/m 4,7 km/h (1 Bft)
22.09.2011 12:00 17,0 C 71 % 1020,0 hPa 0,0 l/m S 0,50 h 412 W/m 6,4 km/h (2 Bft)
22.09.2011 13:00 17,6 C 67 % 1019,5 hPa 0,0 l/m N-NW 0,75 h 605 W/m 7,2 km/h (2 Bft)
22.09.2011 14:00 18,4 C 65 % 1019,2 hPa 0,0 l/m N 0,75 h 515 W/m 6,2 km/h (2 Bft)
22.09.2011 15:00 18,6 C 61 % 1018,9 hPa 0,0 l/m NW 0,33 h 325 W/m 6,7 km/h (2 Bft)
22.09.2011 16:00 18,6 C 62 % 1018,7 hPa 0,0 l/m NW 0,25 h 189 W/m 4,1 km/h (1 Bft)
22.09.2011 17:00 18,5 C 62 % 1018,6 hPa 0,0 l/m O-NO 0,00 h 68 W/m 5,2 km/h (1 Bft)
22.09.2011 18:00 16,5 C 78 % 1018,5 hPa 0,0 l/m N 0,00 h 36 W/m 1,1 km/h (0 Bft)
22.09.2011 19:00 13,8 C 89 % 1018,8 hPa 0,0 l/m N 0,08 h 10 W/m 0,5 km/h (0 Bft)
22.09.2011 20:00 12,9 C 92 % 1019,3 hPa 0,0 l/m N 0,00 h 0 W/m 0,8 km/h (0 Bft)
22.09.2011 21:00 13,3 C 91 % 1019,7 hPa 0,0 l/m N 0,00 h 0 W/m 2,0 km/h (1 Bft)
22.09.2011 22:00 12,8 C 92 % 1019,7 hPa 0,0 l/m N 0,00 h 0 W/m 0,5 km/h (0 Bft)
22.09.2011 23:00 12,1 C 93 % 1019,4 hPa 0,0 l/m N 0,00 h 0 W/m 0,7 km/h (0 Bft)
23.09.2011 00:00 11,8 C 94 % 1019,3 hPa 0,0 l/m N-NO 0,00 h 0 W/m 3,1 km/h (1 Bft)
23.09.2011 01:00 12,0 C 93 % 1019,1 hPa 0,0 l/m N-NO 0,00 h 0 W/m 3,6 km/h (1 Bft)
23.09.2011 02:00 11,7 C 94 % 1018,9 hPa 0,0 l/m N-NO 0,00 h 0 W/m 2,5 km/h (1 Bft)
23.09.2011 03:00 10,8 C 95 % 1018,5 hPa 0,0 l/m N-NO 0,00 h 0 W/m 2,8 km/h (1 Bft)
23.09.2011 04:00 10,0 C 97 % 1018,2 hPa 0,0 l/m N 0,00 h 0 W/m 2,3 km/h (1 Bft)
23.09.2011 05:00 10,3 C 97 % 1018,0 hPa 0,0 l/m N-NO 0,00 h 0 W/m 3,5 km/h (1 Bft)
23.09.2011 06:00 10,5 C 97 % 1017,8 hPa 0,0 l/m N 0,00 h 0 W/m 1,6 km/h (1 Bft)
23.09.2011 07:00 10,4 C 97 % 1017,9 hPa 0,0 l/m N 0,08 h 19 W/m 2,1 km/h (1 Bft)
23.09.2011 08:00 11,3 C 96 % 1017,9 hPa 0,0 l/m N-NO 0,00 h 56 W/m 2,8 km/h (1 Bft)
23.09.2011 09:00 13,3 C 89 % 1017,9 hPa 0,0 l/m N-NO 0,25 h 151 W/m 4,9 km/h (1 Bft)
23.09.2011 10:00 15,2 C 81 % 1017,7 hPa 0,0 l/m N-NO 0,25 h 239 W/m 7,1 km/h (2 Bft)
23.09.2011 11:00 16,8 C 74 % 1017,2 hPa 0,0 l/m O 0,00 h 139 W/m 8,1 km/h (2 Bft)
23.09.2011 12:00 18,3 C 61 % 1016,8 hPa 0,0 l/m O-SO 0,25 h 381 W/m 14,1 km/h (3 Bft)
23.09.2011 13:00 19,0 C 57 % 1016,4 hPa 0,0 l/m NO 0,42 h 394 W/m 12,1 km/h (2 Bft)
23.09.2011 14:00 19,4 C 57 % 1015,8 hPa 0,0 l/m O-NO 0,83 h 659 W/m 13,3 km/h (3 Bft)
23.09.2011 15:00 19,8 C 55 % 1015,4 hPa 0,0 l/m O-NO 0,67 h 441 W/m 12,8 km/h (3 Bft)
23.09.2011 16:00 19,3 C 57 % 1015,1 hPa 0,0 l/m O-NO 0,17 h 183 W/m 10,2 km/h (2 Bft)
23.09.2011 17:00 19,0 C 58 % 1015,0 hPa 0,0 l/m NO 0,00 h 72 W/m 10,5 km/h (2 Bft)
23.09.2011 18:00 17,8 C 64 % 1015,1 hPa 0,0 l/m NO 0,00 h 32 W/m 7,1 km/h (2 Bft)
23.09.2011 19:00 14,3 C 83 % 1015,3 hPa 0,0 l/m N 0,00 h 9 W/m 0,8 km/h (0 Bft)
23.09.2011 20:00 12,6 C 88 % 1015,7 hPa 0,0 l/m N 0,00 h 0 W/m 0,7 km/h (0 Bft)
23.09.2011 21:00 11,5 C 92 % 1015,8 hPa 0,0 l/m N 0,00 h 0 W/m 0,7 km/h (0 Bft)
23.09.2011 22:00 11,3 C 94 % 1015,9 hPa 0,0 l/m N 0,00 h 0 W/m 3,1 km/h (1 Bft)
23.09.2011 23:00 11,1 C 93 % 1015,8 hPa 0,0 l/m N 0,00 h 0 W/m 2,8 km/h (1 Bft)
24.09.2011 00:00 10,8 C 93 % 1015,7 hPa 0,0 l/m NO 0,00 h 0 W/m 4,3 km/h (1 Bft)
24.09.2011 01:00 10,3 C 94 % 1015,5 hPa 0,0 l/m N 0,00 h 0 W/m 3,9 km/h (1 Bft)
24.09.2011 02:00 9,8 C 95 % 1015,4 hPa 0,0 l/m NO 0,00 h 0 W/m 4,5 km/h (1 Bft)
24.09.2011 03:00 9,3 C 96 % 1015,2 hPa 0,0 l/m N 0,00 h 0 W/m 3,6 km/h (1 Bft)
24.09.2011 04:00 8,9 C 96 % 1015,2 hPa 0,0 l/m N 0,00 h 0 W/m 2,9 km/h (1 Bft)
24.09.2011 05:00 8,5 C 97 % 1015,0 hPa 0,0 l/m NO 0,00 h 0 W/m 3,9 km/h (1 Bft)
24.09.2011 06:00 8,1 C 97 % 1015,0 hPa 0,0 l/m NO 0,00 h 0 W/m 3,3 km/h (1 Bft)
24.09.2011 07:00 7,8 C 97 % 1015,2 hPa 0,0 l/m N 0,08 h 17 W/m 1,9 km/h (1 Bft)
24.09.2011 08:00 8,4 C 98 % 1015,5 hPa 0,0 l/m N 0,00 h 69 W/m 2,4 km/h (1 Bft)
24.09.2011 09:00 9,2 C 98 % 1015,7 hPa 0,0 l/m NO 0,00 h 152 W/m 3,7 km/h (1 Bft)
24.09.2011 10:00 10,9 C 96 % 1015,9 hPa 0,0 l/m NO 0,25 h 218 W/m 4,5 km/h (1 Bft)
24.09.2011 11:00 14,4 C 86 % 1015,7 hPa 0,0 l/m O-NO 0,00 h 140 W/m 4,8 km/h (1 Bft)
24.09.2011 12:00 17,3 C 77 % 1015,4 hPa 0,0 l/m S-SW 0,25 h 313 W/m 7,1 km/h (2 Bft)
24.09.2011 13:00 19,2 C 71 % 1015,0 hPa 0,0 l/m SW 1,00 h 686 W/m 7,3 km/h (2 Bft)
24.09.2011 14:00 20,6 C 64 % 1014,6 hPa 0,0 l/m SO 1,00 h 650 W/m 7,4 km/h (2 Bft)
24.09.2011 15:00 21,5 C 61 % 1014,4 hPa 0,0 l/m S 0,58 h 386 W/m 7,4 km/h (2 Bft)
24.09.2011 16:00 21,4 C 60 % 1014,2 hPa 0,0 l/m W-SW 0,42 h 200 W/m 5,6 km/h (1 Bft)
24.09.2011 17:00 20,9 C 62 % 1014,1 hPa 0,0 l/m SW 0,00 h 51 W/m 6,0 km/h (2 Bft)
24.09.2011 18:00 18,2 C 80 % 1014,3 hPa 0,0 l/m N 0,00 h 27 W/m 0,7 km/h (0 Bft)
24.09.2011 19:00 15,1 C 91 % 1014,6 hPa 0,0 l/m N 0,00 h 7 W/m 0,0 km/h (0 Bft)
24.09.2011 20:00 13,7 C 94 % 1015,1 hPa 0,0 l/m N 0,00 h 0 W/m 0,0 km/h (0 Bft)
24.09.2011 21:00 12,6 C 96 % 1015,6 hPa 0,0 l/m N 0,00 h 0 W/m 0,4 km/h (0 Bft)
24.09.2011 22:00 11,9 C 96 % 1016,2 hPa 0,0 l/m N 0,00 h 0 W/m 0,3 km/h (0 Bft)
24.09.2011 23:00 11,2 C 97 % 1016,4 hPa 0,0 l/m N 0,00 h 0 W/m 0,0 km/h (0 Bft)
25.09.2011 00:00 10,4 C 97 % 1016,5 hPa 0,0 l/m N 0,00 h 0 W/m 0,0 km/h (0 Bft)
25.09.2011 01:00 9,8 C 97 % 1016,7 hPa 0,0 l/m N 0,00 h 0 W/m 0,0 km/h (0 Bft)
25.09.2011 02:00 9,5 C 97 % 1017,0 hPa 0,0 l/m N 0,00 h 0 W/m 0,0 km/h (0 Bft)
25.09.2011 03:00 9,1 C 97 % 1017,1 hPa 0,0 l/m N 0,00 h 0 W/m 0,0 km/h (0 Bft)
25.09.2011 04:00 8,9 C 98 % 1017,1 hPa 0,0 l/m N 0,00 h 0 W/m 0,0 km/h (0 Bft)
25.09.2011 05:00 8,2 C 97 % 1017,3 hPa 0,0 l/m N 0,00 h 0 W/m 0,0 km/h (0 Bft)
25.09.2011 06:00 8,3 C 98 % 1017,6 hPa 0,0 l/m N 0,00 h 0 W/m 0,0 km/h (0 Bft)
25.09.2011 07:00 8,6 C 98 % 1018,1 hPa 0,0 l/m N 0,00 h 18 W/m 0,0 km/h (0 Bft)
25.09.2011 08:00 9,4 C 98 % 1018,5 hPa 0,0 l/m N 0,00 h 54 W/m 0,1 km/h (0 Bft)
25.09.2011 09:00 11,3 C 98 % 1018,8 hPa 0,0 l/m N 0,00 h 124 W/m 1,2 km/h (1 Bft)
25.09.2011 10:00 15,0 C 93 % 1018,9 hPa 0,0 l/m S-SW 0,17 h 214 W/m 7,5 km/h (2 Bft)
25.09.2011 11:00 17,4 C 85 % 1018,9 hPa 0,0 l/m S-SW 0,00 h 180 W/m 10,6 km/h (2 Bft)
25.09.2011 12:00 19,7 C 77 % 1018,7 hPa 0,0 l/m S-SW 0,25 h 311 W/m 9,8 km/h (2 Bft)
25.09.2011 13:00 20,9 C 76 % 1018,5 hPa 0,0 l/m SW 1,00 h 597 W/m 11,8 km/h (2 Bft)
25.09.2011 14:00 21,8 C 72 % 1018,2 hPa 0,0 l/m SW 1,00 h 498 W/m 9,9 km/h (2 Bft)
25.09.2011 15:00 21,7 C 71 % 1018,2 hPa 0,0 l/m S-SW 0,58 h 304 W/m 10,1 km/h (2 Bft)
25.09.2011 16:00 21,4 C 70 % 1018,4 hPa 0,0 l/m S-SW 0,17 h 169 W/m 7,2 km/h (2 Bft)
25.09.2011 17:00 20,6 C 75 % 1018,5 hPa 0,0 l/m S-SW 0,00 h 76 W/m 4,8 km/h (1 Bft)
25.09.2011 18:00 18,9 C 84 % 1018,8 hPa 0,0 l/m N 0,00 h 39 W/m 0,5 km/h (0 Bft)
25.09.2011 19:00 16,3 C 92 % 1019,4 hPa 0,0 l/m N 0,08 h 8 W/m 0,8 km/h (0 Bft)
25.09.2011 20:00 14,6 C 95 % 1019,8 hPa 0,0 l/m N 0,00 h 0 W/m 0,3 km/h (0 Bft)
25.09.2011 21:00 13,5 C 96 % 1020,3 hPa 0,0 l/m N 0,00 h 0 W/m 0,3 km/h (0 Bft)
25.09.2011 22:00 13,3 C 96 % 1020,7 hPa 0,0 l/m N 0,00 h 0 W/m 1,7 km/h (1 Bft)
25.09.2011 23:00 12,4 C 97 % 1021,1 hPa 0,0 l/m N 0,00 h 0 W/m 0,3 km/h (0 Bft)
Min-Datum _ 22.09.11 23.09.11 19.09.11 - - - - 19.09.11
_ Min-Zeit 07:25 15:25 07:10 - - - - 09:20
Minimum _ 5,8 C 51 % 1009,8 hPa - - - - 0,0 km/h (0 Bft)
Max-Datum _ 25.09.11 20.09.11 20.09.11 19.09.11 - 19.09.11 20.09.11 23.09.11
_ Max-Zeit 14:35 01:00 10:25 20:00 - 16:10 14:50 14:15
Maximum _ 22,2 C 100 % 1025,2 hPa 0,4 l/m - 0,08 h 853 W/m 19,3 km/h
O-NO (3 Bft)
Durchschnitt _ 12,1 C 87 % 1018,2 hPa #0,6 l/m S-SW #19:30 h 205 W/m 3,9 km/h (1 Bft)